sensor_id;sensor_type;location;lat;lon;timestamp;P1;durP1;ratioP1;P2;durP2;ratioP2
55067;SDS011;40965;52.368;9.712;2022-07-06T00:02:00;1.95;;;0.80;;
55067;SDS011;40965;52.368;9.712;2022-07-06T00:04:30;3.10;;;0.98;;
55067;SDS011;40965;52.368;9.712;2022-07-06T00:06:56;1.38;;;0.88;;
55067;SDS011;40965;52.368;9.712;2022-07-06T00:09:23;0.98;;;0.85;;
55067;SDS011;40965;52.368;9.712;2022-07-06T00:11:50;3.33;;;0.90;;
55067;SDS011;40965;52.368;9.712;2022-07-06T00:14:17;2.55;;;0.80;;
55067;SDS011;40965;52.368;9.712;2022-07-06T00:16:43;1.45;;;0.60;;
55067;SDS011;40965;52.368;9.712;2022-07-06T00:19:10;1.40;;;0.60;;
55067;SDS011;40965;52.368;9.712;2022-07-06T00:21:36;2.22;;;0.70;;
55067;SDS011;40965;52.368;9.712;2022-07-06T00:24:06;3.00;;;0.68;;
55067;SDS011;40965;52.368;9.712;2022-07-06T00:26:33;5.57;;;1.10;;
55067;SDS011;40965;52.368;9.712;2022-07-06T00:28:59;0.50;;;0.50;;
55067;SDS011;40965;52.368;9.712;2022-07-06T00:31:26;3.80;;;0.60;;
55067;SDS011;40965;52.368;9.712;2022-07-06T00:33:53;0.60;;;0.30;;
55067;SDS011;40965;52.368;9.712;2022-07-06T00:36:19;0.88;;;0.75;;
55067;SDS011;40965;52.368;9.712;2022-07-06T00:38:47;2.45;;;0.70;;
55067;SDS011;40965;52.368;9.712;2022-07-06T00:41:14;1.75;;;0.98;;
55067;SDS011;40965;52.368;9.712;2022-07-06T00:43:48;0.55;;;0.55;;
55067;SDS011;40965;52.368;9.712;2022-07-06T00:46:16;2.92;;;0.75;;
55067;SDS011;40965;52.368;9.712;2022-07-06T00:48:43;0.88;;;0.50;;
55067;SDS011;40965;52.368;9.712;2022-07-06T00:51:10;5.25;;;0.90;;
55067;SDS011;40965;52.368;9.712;2022-07-06T00:53:37;1.73;;;0.50;;
55067;SDS011;40965;52.368;9.712;2022-07-06T00:56:07;1.33;;;0.75;;
55067;SDS011;40965;52.368;9.712;2022-07-06T00:58:34;1.05;;;1.00;;
55067;SDS011;40965;52.368;9.712;2022-07-06T01:01:01;1.85;;;0.63;;
55067;SDS011;40965;52.368;9.712;2022-07-06T01:03:28;5.40;;;0.93;;
55067;SDS011;40965;52.368;9.712;2022-07-06T01:05:55;1.90;;;0.80;;
55067;SDS011;40965;52.368;9.712;2022-07-06T01:08:22;0.82;;;0.77;;
55067;SDS011;40965;52.368;9.712;2022-07-06T01:10:50;1.60;;;0.80;;
55067;SDS011;40965;52.368;9.712;2022-07-06T01:13:17;0.73;;;0.68;;
55067;SDS011;40965;52.368;9.712;2022-07-06T01:15:44;3.22;;;0.90;;
55067;SDS011;40965;52.368;9.712;2022-07-06T01:18:10;1.20;;;0.63;;
55067;SDS011;40965;52.368;9.712;2022-07-06T01:20:37;1.05;;;0.80;;
55067;SDS011;40965;52.368;9.712;2022-07-06T01:23:04;0.70;;;0.70;;
55067;SDS011;40965;52.368;9.712;2022-07-06T01:25:32;2.85;;;1.05;;
55067;SDS011;40965;52.368;9.712;2022-07-06T01:28:02;1.10;;;0.65;;
55067;SDS011;40965;52.368;9.712;2022-07-06T01:30:29;1.65;;;1.20;;
55067;SDS011;40965;52.368;9.712;2022-07-06T01:32:56;2.80;;;1.10;;
55067;SDS011;40965;52.368;9.712;2022-07-06T01:35:22;2.40;;;1.63;;
55067;SDS011;40965;52.368;9.712;2022-07-06T01:37:52;2.28;;;0.50;;
55067;SDS011;40965;52.368;9.712;2022-07-06T01:40:18;2.25;;;0.80;;
55067;SDS011;40965;52.368;9.712;2022-07-06T01:42:45;2.28;;;0.50;;
55067;SDS011;40965;52.368;9.712;2022-07-06T01:45:12;2.08;;;0.60;;
55067;SDS011;40965;52.368;9.712;2022-07-06T01:47:38;5.75;;;2.78;;
55067;SDS011;40965;52.368;9.712;2022-07-06T01:50:06;1.58;;;0.68;;
55067;SDS011;40965;52.368;9.712;2022-07-06T01:52:34;0.75;;;0.73;;
55067;SDS011;40965;52.368;9.712;2022-07-06T01:55:02;2.67;;;0.80;;
55067;SDS011;40965;52.368;9.712;2022-07-06T01:57:32;0.75;;;0.35;;
55067;SDS011;40965;52.368;9.712;2022-07-06T01:59:59;1.48;;;0.70;;
55067;SDS011;40965;52.368;9.712;2022-07-06T02:02:26;4.65;;;0.82;;
55067;SDS011;40965;52.368;9.712;2022-07-06T02:04:52;4.32;;;0.70;;
55067;SDS011;40965;52.368;9.712;2022-07-06T02:07:20;5.38;;;0.88;;
55067;SDS011;40965;52.368;9.712;2022-07-06T02:09:47;2.13;;;0.43;;
55067;SDS011;40965;52.368;9.712;2022-07-06T02:12:14;1.48;;;0.60;;
55067;SDS011;40965;52.368;9.712;2022-07-06T02:14:40;0.77;;;0.77;;
55067;SDS011;40965;52.368;9.712;2022-07-06T02:17:07;0.70;;;0.65;;
55067;SDS011;40965;52.368;9.712;2022-07-06T02:19:33;3.55;;;0.70;;
55067;SDS011;40965;52.368;9.712;2022-07-06T02:22:00;3.03;;;0.60;;
55067;SDS011;40965;52.368;9.712;2022-07-06T02:24:28;1.98;;;1.10;;
55067;SDS011;40965;52.368;9.712;2022-07-06T02:26:54;1.10;;;0.68;;
55067;SDS011;40965;52.368;9.712;2022-07-06T02:29:21;0.98;;;0.70;;
55067;SDS011;40965;52.368;9.712;2022-07-06T02:31:48;3.95;;;1.25;;
55067;SDS011;40965;52.368;9.712;2022-07-06T02:34:14;0.98;;;0.90;;
55067;SDS011;40965;52.368;9.712;2022-07-06T02:36:41;2.50;;;0.50;;
55067;SDS011;40965;52.368;9.712;2022-07-06T02:39:07;1.08;;;0.50;;
55067;SDS011;40965;52.368;9.712;2022-07-06T02:41:34;1.50;;;0.80;;
55067;SDS011;40965;52.368;9.712;2022-07-06T02:44:01;4.18;;;0.90;;
55067;SDS011;40965;52.368;9.712;2022-07-06T02:46:27;6.18;;;0.90;;
55067;SDS011;40965;52.368;9.712;2022-07-06T02:48:54;3.03;;;1.00;;
55067;SDS011;40965;52.368;9.712;2022-07-06T02:51:22;5.13;;;1.90;;
55067;SDS011;40965;52.368;9.712;2022-07-06T02:53:49;3.63;;;1.00;;
55067;SDS011;40965;52.368;9.712;2022-07-06T02:56:25;2.47;;;1.17;;
55067;SDS011;40965;52.368;9.712;2022-07-06T02:58:53;3.08;;;1.00;;
55067;SDS011;40965;52.368;9.712;2022-07-06T03:01:19;2.45;;;1.45;;
55067;SDS011;40965;52.368;9.712;2022-07-06T03:03:46;1.70;;;0.68;;
55067;SDS011;40965;52.368;9.712;2022-07-06T03:06:13;3.10;;;0.65;;
55067;SDS011;40965;52.368;9.712;2022-07-06T03:08:40;1.55;;;0.93;;
55067;SDS011;40965;52.368;9.712;2022-07-06T03:11:07;2.15;;;1.10;;
55067;SDS011;40965;52.368;9.712;2022-07-06T03:13:34;2.55;;;0.73;;
55067;SDS011;40965;52.368;9.712;2022-07-06T03:16:01;2.92;;;0.60;;
55067;SDS011;40965;52.368;9.712;2022-07-06T03:18:28;0.93;;;0.70;;
55067;SDS011;40965;52.368;9.712;2022-07-06T03:20:55;1.38;;;0.88;;
55067;SDS011;40965;52.368;9.712;2022-07-06T03:23:22;3.53;;;0.70;;
55067;SDS011;40965;52.368;9.712;2022-07-06T03:25:49;2.53;;;0.93;;
55067;SDS011;40965;52.368;9.712;2022-07-06T03:28:16;6.38;;;0.95;;
55067;SDS011;40965;52.368;9.712;2022-07-06T03:30:42;5.03;;;1.00;;
55067;SDS011;40965;52.368;9.712;2022-07-06T03:33:09;2.08;;;1.10;;
55067;SDS011;40965;52.368;9.712;2022-07-06T03:35:35;1.80;;;0.73;;
55067;SDS011;40965;52.368;9.712;2022-07-06T03:38:02;2.28;;;0.80;;
55067;SDS011;40965;52.368;9.712;2022-07-06T03:40:28;2.45;;;0.73;;
55067;SDS011;40965;52.368;9.712;2022-07-06T03:42:55;5.82;;;0.85;;
55067;SDS011;40965;52.368;9.712;2022-07-06T03:45:22;4.05;;;0.80;;
55067;SDS011;40965;52.368;9.712;2022-07-06T03:47:50;1.63;;;0.95;;
55067;SDS011;40965;52.368;9.712;2022-07-06T03:50:16;1.75;;;0.90;;
55067;SDS011;40965;52.368;9.712;2022-07-06T03:52:43;5.55;;;0.70;;
55067;SDS011;40965;52.368;9.712;2022-07-06T03:55:11;3.42;;;0.80;;
55067;SDS011;40965;52.368;9.712;2022-07-06T03:57:39;3.28;;;1.38;;
55067;SDS011;40965;52.368;9.712;2022-07-06T04:00:06;3.08;;;0.90;;
55067;SDS011;40965;52.368;9.712;2022-07-06T04:02:34;1.42;;;0.80;;
55067;SDS011;40965;52.368;9.712;2022-07-06T04:05:01;2.25;;;0.85;;
55067;SDS011;40965;52.368;9.712;2022-07-06T04:07:33;2.55;;;0.90;;
55067;SDS011;40965;52.368;9.712;2022-07-06T04:10:01;2.65;;;1.70;;
55067;SDS011;40965;52.368;9.712;2022-07-06T04:12:27;3.75;;;0.82;;
55067;SDS011;40965;52.368;9.712;2022-07-06T04:14:57;2.10;;;0.80;;
55067;SDS011;40965;52.368;9.712;2022-07-06T04:17:24;5.20;;;1.40;;
55067;SDS011;40965;52.368;9.712;2022-07-06T04:20:09;2.55;;;0.70;;
55067;SDS011;40965;52.368;9.712;2022-07-06T04:22:39;8.05;;;1.38;;
55067;SDS011;40965;52.368;9.712;2022-07-06T04:25:06;8.10;;;1.17;;
55067;SDS011;40965;52.368;9.712;2022-07-06T04:27:37;4.25;;;0.80;;
55067;SDS011;40965;52.368;9.712;2022-07-06T04:30:04;3.88;;;1.02;;
55067;SDS011;40965;52.368;9.712;2022-07-06T04:32:32;5.38;;;1.25;;
55067;SDS011;40965;52.368;9.712;2022-07-06T04:34:59;10.25;;;1.70;;
55067;SDS011;40965;52.368;9.712;2022-07-06T04:37:25;4.30;;;1.88;;
55067;SDS011;40965;52.368;9.712;2022-07-06T04:39:52;4.72;;;1.55;;
55067;SDS011;40965;52.368;9.712;2022-07-06T04:42:19;4.30;;;1.75;;
55067;SDS011;40965;52.368;9.712;2022-07-06T04:44:46;2.70;;;1.60;;
55067;SDS011;40965;52.368;9.712;2022-07-06T04:47:17;4.57;;;1.50;;
55067;SDS011;40965;52.368;9.712;2022-07-06T04:49:44;7.93;;;2.25;;
55067;SDS011;40965;52.368;9.712;2022-07-06T04:52:11;5.32;;;2.20;;
55067;SDS011;40965;52.368;9.712;2022-07-06T04:54:38;5.45;;;1.83;;
55067;SDS011;40965;52.368;9.712;2022-07-06T04:57:10;7.15;;;2.15;;
55067;SDS011;40965;52.368;9.712;2022-07-06T04:59:36;6.82;;;2.10;;
55067;SDS011;40965;52.368;9.712;2022-07-06T05:02:06;3.38;;;1.42;;
55067;SDS011;40965;52.368;9.712;2022-07-06T05:04:32;7.55;;;1.92;;
55067;SDS011;40965;52.368;9.712;2022-07-06T05:07:01;7.63;;;1.95;;
55067;SDS011;40965;52.368;9.712;2022-07-06T05:09:28;4.85;;;1.35;;
55067;SDS011;40965;52.368;9.712;2022-07-06T05:11:55;5.28;;;1.75;;
55067;SDS011;40965;52.368;9.712;2022-07-06T05:14:22;8.02;;;1.73;;
55067;SDS011;40965;52.368;9.712;2022-07-06T05:16:49;3.75;;;1.27;;
55067;SDS011;40965;52.368;9.712;2022-07-06T05:19:16;2.28;;;1.15;;
55067;SDS011;40965;52.368;9.712;2022-07-06T05:21:43;1.83;;;1.20;;
55067;SDS011;40965;52.368;9.712;2022-07-06T05:24:12;3.38;;;1.30;;
55067;SDS011;40965;52.368;9.712;2022-07-06T05:26:40;2.72;;;1.20;;
55067;SDS011;40965;52.368;9.712;2022-07-06T05:29:08;3.97;;;1.13;;
55067;SDS011;40965;52.368;9.712;2022-07-06T05:31:35;4.57;;;0.85;;
55067;SDS011;40965;52.368;9.712;2022-07-06T05:34:01;2.03;;;1.35;;
55067;SDS011;40965;52.368;9.712;2022-07-06T05:36:29;6.88;;;1.73;;
55067;SDS011;40965;52.368;9.712;2022-07-06T05:38:55;6.55;;;1.20;;
55067;SDS011;40965;52.368;9.712;2022-07-06T05:41:23;3.58;;;1.13;;
55067;SDS011;40965;52.368;9.712;2022-07-06T05:43:50;4.10;;;1.67;;
55067;SDS011;40965;52.368;9.712;2022-07-06T05:46:17;3.38;;;1.20;;
55067;SDS011;40965;52.368;9.712;2022-07-06T05:48:52;1.60;;;0.75;;
55067;SDS011;40965;52.368;9.712;2022-07-06T05:51:36;3.97;;;1.20;;
55067;SDS011;40965;52.368;9.712;2022-07-06T05:54:03;2.38;;;0.82;;
55067;SDS011;40965;52.368;9.712;2022-07-06T05:56:32;1.10;;;0.65;;
55067;SDS011;40965;52.368;9.712;2022-07-06T05:59:02;3.35;;;0.82;;
55067;SDS011;40965;52.368;9.712;2022-07-06T06:01:28;2.28;;;1.10;;
55067;SDS011;40965;52.368;9.712;2022-07-06T06:03:58;7.40;;;2.45;;
55067;SDS011;40965;52.368;9.712;2022-07-06T06:06:27;4.00;;;1.25;;
55067;SDS011;40965;52.368;9.712;2022-07-06T06:08:56;5.80;;;1.23;;
55067;SDS011;40965;52.368;9.712;2022-07-06T06:11:23;5.82;;;1.02;;
55067;SDS011;40965;52.368;9.712;2022-07-06T06:13:50;3.80;;;1.02;;
55067;SDS011;40965;52.368;9.712;2022-07-06T06:16:16;4.43;;;1.40;;
55067;SDS011;40965;52.368;9.712;2022-07-06T06:18:43;3.45;;;1.50;;
55067;SDS011;40965;52.368;9.712;2022-07-06T06:21:10;6.10;;;1.05;;
55067;SDS011;40965;52.368;9.712;2022-07-06T06:23:37;5.72;;;1.10;;
55067;SDS011;40965;52.368;9.712;2022-07-06T06:26:04;4.38;;;1.00;;
55067;SDS011;40965;52.368;9.712;2022-07-06T06:28:33;2.40;;;0.70;;
55067;SDS011;40965;52.368;9.712;2022-07-06T06:31:01;1.77;;;0.75;;
55067;SDS011;40965;52.368;9.712;2022-07-06T06:33:30;3.03;;;0.95;;
55067;SDS011;40965;52.368;9.712;2022-07-06T06:35:57;6.28;;;1.00;;
55067;SDS011;40965;52.368;9.712;2022-07-06T06:38:24;5.20;;;1.00;;
55067;SDS011;40965;52.368;9.712;2022-07-06T06:40:52;5.15;;;1.52;;
55067;SDS011;40965;52.368;9.712;2022-07-06T06:43:19;4.70;;;0.80;;
55067;SDS011;40965;52.368;9.712;2022-07-06T06:45:46;8.73;;;0.73;;
55067;SDS011;40965;52.368;9.712;2022-07-06T06:48:13;10.20;;;1.33;;
55067;SDS011;40965;52.368;9.712;2022-07-06T06:50:42;1.27;;;0.70;;
55067;SDS011;40965;52.368;9.712;2022-07-06T06:53:10;2.83;;;0.68;;
55067;SDS011;40965;52.368;9.712;2022-07-06T06:55:43;4.03;;;1.20;;
55067;SDS011;40965;52.368;9.712;2022-07-06T06:58:15;9.90;;;1.63;;
55067;SDS011;40965;52.368;9.712;2022-07-06T07:00:42;6.82;;;1.85;;
55067;SDS011;40965;52.368;9.712;2022-07-06T07:03:13;5.82;;;0.90;;
55067;SDS011;40965;52.368;9.712;2022-07-06T07:05:42;5.13;;;0.73;;
55067;SDS011;40965;52.368;9.712;2022-07-06T07:08:09;1.50;;;0.77;;
55067;SDS011;40965;52.368;9.712;2022-07-06T07:10:36;3.38;;;0.88;;
55067;SDS011;40965;52.368;9.712;2022-07-06T07:13:06;3.38;;;0.73;;
55067;SDS011;40965;52.368;9.712;2022-07-06T07:15:33;3.58;;;1.52;;
55067;SDS011;40965;52.368;9.712;2022-07-06T07:18:00;6.78;;;1.05;;
55067;SDS011;40965;52.368;9.712;2022-07-06T07:20:27;1.80;;;0.47;;
55067;SDS011;40965;52.368;9.712;2022-07-06T07:22:55;2.38;;;0.90;;
55067;SDS011;40965;52.368;9.712;2022-07-06T07:25:22;3.60;;;0.82;;
55067;SDS011;40965;52.368;9.712;2022-07-06T07:27:49;5.63;;;1.25;;
55067;SDS011;40965;52.368;9.712;2022-07-06T07:30:16;1.50;;;0.93;;
55067;SDS011;40965;52.368;9.712;2022-07-06T07:32:43;3.63;;;0.82;;
55067;SDS011;40965;52.368;9.712;2022-07-06T07:35:13;3.63;;;0.68;;
55067;SDS011;40965;52.368;9.712;2022-07-06T07:37:40;4.70;;;0.60;;
55067;SDS011;40965;52.368;9.712;2022-07-06T07:40:07;4.53;;;0.85;;
55067;SDS011;40965;52.368;9.712;2022-07-06T07:42:36;3.25;;;1.05;;
55067;SDS011;40965;52.368;9.712;2022-07-06T07:45:06;2.72;;;0.77;;
55067;SDS011;40965;52.368;9.712;2022-07-06T07:47:34;5.03;;;1.30;;
55067;SDS011;40965;52.368;9.712;2022-07-06T07:50:02;3.20;;;0.65;;
55067;SDS011;40965;52.368;9.712;2022-07-06T07:52:29;3.28;;;0.50;;
55067;SDS011;40965;52.368;9.712;2022-07-06T07:55:01;5.32;;;0.75;;
55067;SDS011;40965;52.368;9.712;2022-07-06T07:57:44;2.10;;;0.63;;
55067;SDS011;40965;52.368;9.712;2022-07-06T08:00:21;5.38;;;0.88;;
55067;SDS011;40965;52.368;9.712;2022-07-06T08:03:16;1.73;;;0.60;;
55067;SDS011;40965;52.368;9.712;2022-07-06T08:05:49;1.00;;;0.47;;
55067;SDS011;40965;52.368;9.712;2022-07-06T08:08:30;3.33;;;0.32;;
55067;SDS011;40965;52.368;9.712;2022-07-06T08:11:02;0.47;;;0.20;;
55067;SDS011;40965;52.368;9.712;2022-07-06T08:13:39;0.80;;;0.40;;
55067;SDS011;40965;52.368;9.712;2022-07-06T08:16:14;1.42;;;0.45;;
55067;SDS011;40965;52.368;9.712;2022-07-06T08:18:42;1.73;;;0.30;;
55067;SDS011;40965;52.368;9.712;2022-07-06T08:21:09;2.17;;;0.40;;
55067;SDS011;40965;52.368;9.712;2022-07-06T08:23:38;1.90;;;0.40;;
55067;SDS011;40965;52.368;9.712;2022-07-06T08:26:05;1.48;;;0.40;;
55067;SDS011;40965;52.368;9.712;2022-07-06T08:28:32;1.40;;;0.50;;
55067;SDS011;40965;52.368;9.712;2022-07-06T08:30:59;3.67;;;1.15;;
55067;SDS011;40965;52.368;9.712;2022-07-06T08:33:30;1.15;;;0.60;;
55067;SDS011;40965;52.368;9.712;2022-07-06T08:35:59;2.35;;;0.57;;
55067;SDS011;40965;52.368;9.712;2022-07-06T08:38:39;2.42;;;0.43;;
55067;SDS011;40965;52.368;9.712;2022-07-06T08:41:05;2.40;;;0.30;;
55067;SDS011;40965;52.368;9.712;2022-07-06T08:43:34;2.53;;;0.57;;
55067;SDS011;40965;52.368;9.712;2022-07-06T08:46:02;4.53;;;0.50;;
55067;SDS011;40965;52.368;9.712;2022-07-06T08:48:31;2.85;;;0.70;;
55067;SDS011;40965;52.368;9.712;2022-07-06T08:51:05;2.95;;;0.50;;
55067;SDS011;40965;52.368;9.712;2022-07-06T08:53:36;2.00;;;0.50;;
55067;SDS011;40965;52.368;9.712;2022-07-06T08:56:05;0.88;;;0.40;;
55067;SDS011;40965;52.368;9.712;2022-07-06T08:58:34;1.05;;;0.30;;
55067;SDS011;40965;52.368;9.712;2022-07-06T09:01:06;1.35;;;0.40;;
55067;SDS011;40965;52.368;9.712;2022-07-06T09:03:37;1.20;;;0.50;;
55067;SDS011;40965;52.368;9.712;2022-07-06T09:06:14;6.38;;;0.47;;
55067;SDS011;40965;52.368;9.712;2022-07-06T09:08:46;3.13;;;0.50;;
55067;SDS011;40965;52.368;9.712;2022-07-06T09:11:15;4.40;;;0.50;;
55067;SDS011;40965;52.368;9.712;2022-07-06T09:13:42;2.70;;;0.55;;
55067;SDS011;40965;52.368;9.712;2022-07-06T09:16:13;1.95;;;0.40;;
55067;SDS011;40965;52.368;9.712;2022-07-06T09:18:46;3.38;;;0.60;;
55067;SDS011;40965;52.368;9.712;2022-07-06T09:21:24;1.20;;;0.35;;
55067;SDS011;40965;52.368;9.712;2022-07-06T09:23:58;1.50;;;0.50;;
55067;SDS011;40965;52.368;9.712;2022-07-06T09:26:28;3.55;;;0.50;;
55067;SDS011;40965;52.368;9.712;2022-07-06T09:28:56;1.63;;;0.70;;
55067;SDS011;40965;52.368;9.712;2022-07-06T09:31:24;2.25;;;0.47;;
55067;SDS011;40965;52.368;9.712;2022-07-06T09:34:03;0.73;;;0.28;;
55067;SDS011;40965;52.368;9.712;2022-07-06T09:39:24;10.10;;;0.80;;
55067;SDS011;40965;52.368;9.712;2022-07-06T09:44:35;4.25;;;0.35;;
55067;SDS011;40965;52.368;9.712;2022-07-06T09:47:06;22.15;;;2.70;;
55067;SDS011;40965;52.368;9.712;2022-07-06T09:49:37;2.65;;;0.40;;
55067;SDS011;40965;52.368;9.712;2022-07-06T09:52:07;9.65;;;0.80;;
55067;SDS011;40965;52.368;9.712;2022-07-06T09:54:39;1.75;;;0.50;;
55067;SDS011;40965;52.368;9.712;2022-07-06T09:57:15;4.80;;;0.50;;
55067;SDS011;40965;52.368;9.712;2022-07-06T09:59:50;7.28;;;0.60;;
55067;SDS011;40965;52.368;9.712;2022-07-06T10:02:18;2.58;;;0.30;;
55067;SDS011;40965;52.368;9.712;2022-07-06T10:04:58;2.00;;;0.20;;
55067;SDS011;40965;52.368;9.712;2022-07-06T10:07:33;2.28;;;0.50;;
55067;SDS011;40965;52.368;9.712;2022-07-06T10:10:12;4.28;;;0.38;;
55067;SDS011;40965;52.368;9.712;2022-07-06T10:12:47;1.90;;;0.32;;
55067;SDS011;40965;52.368;9.712;2022-07-06T10:15:31;1.45;;;0.70;;
55067;SDS011;40965;52.368;9.712;2022-07-06T10:18:01;3.05;;;0.65;;
55067;SDS011;40965;52.368;9.712;2022-07-06T10:20:48;9.07;;;1.70;;
55067;SDS011;40965;52.368;9.712;2022-07-06T10:23:21;1.23;;;0.40;;
55067;SDS011;40965;52.368;9.712;2022-07-06T10:25:56;1.13;;;0.30;;
55067;SDS011;40965;52.368;9.712;2022-07-06T10:28:35;4.57;;;0.77;;
55067;SDS011;40965;52.368;9.712;2022-07-06T10:31:08;0.32;;;0.32;;
55067;SDS011;40965;52.368;9.712;2022-07-06T10:33:37;0.52;;;0.25;;
55067;SDS011;40965;52.368;9.712;2022-07-06T10:36:11;1.05;;;0.30;;
55067;SDS011;40965;52.368;9.712;2022-07-06T10:38:54;3.45;;;0.75;;
55067;SDS011;40965;52.368;9.712;2022-07-06T10:49:00;2.40;;;0.38;;
55067;SDS011;40965;52.368;9.712;2022-07-06T10:51:57;4.57;;;1.02;;
55067;SDS011;40965;52.368;9.712;2022-07-06T10:54:38;2.92;;;0.35;;
55067;SDS011;40965;52.368;9.712;2022-07-06T10:57:18;5.25;;;0.43;;
55067;SDS011;40965;52.368;9.712;2022-07-06T11:00:03;1.10;;;0.20;;
55067;SDS011;40965;52.368;9.712;2022-07-06T11:02:42;3.00;;;0.65;;
55067;SDS011;40965;52.368;9.712;2022-07-06T11:05:39;1.92;;;0.30;;
55067;SDS011;40965;52.368;9.712;2022-07-06T11:08:13;2.15;;;0.28;;
55067;SDS011;40965;52.368;9.712;2022-07-06T11:10:49;2.58;;;0.20;;
55067;SDS011;40965;52.368;9.712;2022-07-06T11:17:03;1.45;;;0.28;;
55067;SDS011;40965;52.368;9.712;2022-07-06T11:24:12;0.73;;;0.40;;
55067;SDS011;40965;52.368;9.712;2022-07-06T11:27:10;0.75;;;0.35;;
55067;SDS011;40965;52.368;9.712;2022-07-06T11:29:56;3.90;;;0.65;;
55067;SDS011;40965;52.368;9.712;2022-07-06T11:32:51;2.55;;;0.20;;
55067;SDS011;40965;52.368;9.712;2022-07-06T11:35:38;2.08;;;0.55;;
55067;SDS011;40965;52.368;9.712;2022-07-06T11:38:26;4.82;;;0.50;;
55067;SDS011;40965;52.368;9.712;2022-07-06T11:41:05;2.05;;;0.47;;
55067;SDS011;40965;52.368;9.712;2022-07-06T11:46:29;0.73;;;0.10;;
55067;SDS011;40965;52.368;9.712;2022-07-06T11:49:49;0.93;;;0.30;;
55067;SDS011;40965;52.368;9.712;2022-07-06T11:52:47;4.45;;;0.45;;
55067;SDS011;40965;52.368;9.712;2022-07-06T11:55:21;0.82;;;0.13;;
55067;SDS011;40965;52.368;9.712;2022-07-06T11:58:08;1.00;;;0.32;;
55067;SDS011;40965;52.368;9.712;2022-07-06T12:00:41;1.90;;;0.57;;
55067;SDS011;40965;52.368;9.712;2022-07-06T12:03:10;1.13;;;0.17;;
55067;SDS011;40965;52.368;9.712;2022-07-06T12:05:37;1.38;;;0.30;;
55067;SDS011;40965;52.368;9.712;2022-07-06T12:08:05;0.80;;;0.20;;
55067;SDS011;40965;52.368;9.712;2022-07-06T12:10:37;0.50;;;0.20;;
55067;SDS011;40965;52.368;9.712;2022-07-06T12:13:07;1.75;;;0.28;;
55067;SDS011;40965;52.368;9.712;2022-07-06T12:15:34;0.80;;;0.20;;
55067;SDS011;40965;52.368;9.712;2022-07-06T12:18:01;4.47;;;0.52;;
55067;SDS011;40965;52.368;9.712;2022-07-06T12:20:29;2.05;;;0.52;;
55067;SDS011;40965;52.368;9.712;2022-07-06T12:23:08;1.33;;;0.30;;
55067;SDS011;40965;52.368;9.712;2022-07-06T12:25:36;2.05;;;0.40;;
55067;SDS011;40965;52.368;9.712;2022-07-06T12:28:03;1.75;;;0.15;;
55067;SDS011;40965;52.368;9.712;2022-07-06T12:30:32;1.75;;;0.30;;
55067;SDS011;40965;52.368;9.712;2022-07-06T12:33:17;3.67;;;0.50;;
55067;SDS011;40965;52.368;9.712;2022-07-06T12:35:47;2.83;;;0.20;;
55067;SDS011;40965;52.368;9.712;2022-07-06T12:38:24;1.33;;;0.47;;
55067;SDS011;40965;52.368;9.712;2022-07-06T12:41:00;2.55;;;0.40;;
55067;SDS011;40965;52.368;9.712;2022-07-06T12:43:37;9.25;;;0.75;;
55067;SDS011;40965;52.368;9.712;2022-07-06T12:48:56;4.43;;;0.60;;
55067;SDS011;40965;52.368;9.712;2022-07-06T12:51:26;4.15;;;0.35;;
55067;SDS011;40965;52.368;9.712;2022-07-06T12:54:11;0.65;;;0.20;;
55067;SDS011;40965;52.368;9.712;2022-07-06T12:56:55;1.88;;;0.40;;
55067;SDS011;40965;52.368;9.712;2022-07-06T12:59:33;2.10;;;0.65;;
55067;SDS011;40965;52.368;9.712;2022-07-06T13:02:06;0.47;;;0.13;;
55067;SDS011;40965;52.368;9.712;2022-07-06T13:04:36;1.85;;;0.32;;
55067;SDS011;40965;52.368;9.712;2022-07-06T13:07:06;1.50;;;0.93;;
55067;SDS011;40965;52.368;9.712;2022-07-06T13:09:47;1.33;;;0.30;;
55067;SDS011;40965;52.368;9.712;2022-07-06T13:12:14;1.23;;;0.20;;
55067;SDS011;40965;52.368;9.712;2022-07-06T13:14:41;4.57;;;0.43;;
55067;SDS011;40965;52.368;9.712;2022-07-06T13:17:09;1.60;;;0.25;;
55067;SDS011;40965;52.368;9.712;2022-07-06T13:19:36;1.45;;;0.30;;
55067;SDS011;40965;52.368;9.712;2022-07-06T13:22:06;1.88;;;0.30;;
55067;SDS011;40965;52.368;9.712;2022-07-06T13:24:34;5.93;;;0.43;;
55067;SDS011;40965;52.368;9.712;2022-07-06T13:27:04;0.32;;;0.32;;
55067;SDS011;40965;52.368;9.712;2022-07-06T13:29:32;5.25;;;0.40;;
55067;SDS011;40965;52.368;9.712;2022-07-06T13:32:02;2.13;;;0.13;;
55067;SDS011;40965;52.368;9.712;2022-07-06T13:34:31;1.98;;;0.43;;
55067;SDS011;40965;52.368;9.712;2022-07-06T13:37:00;5.75;;;0.50;;
55067;SDS011;40965;52.368;9.712;2022-07-06T13:39:29;3.30;;;0.40;;
55067;SDS011;40965;52.368;9.712;2022-07-06T13:42:01;0.63;;;0.13;;
55067;SDS011;40965;52.368;9.712;2022-07-06T13:44:30;1.60;;;0.10;;
55067;SDS011;40965;52.368;9.712;2022-07-06T13:46:59;1.55;;;0.35;;
55067;SDS011;40965;52.368;9.712;2022-07-06T13:49:26;2.78;;;0.40;;
55067;SDS011;40965;52.368;9.712;2022-07-06T13:51:53;2.15;;;0.20;;
55067;SDS011;40965;52.368;9.712;2022-07-06T13:54:27;2.50;;;0.63;;
55067;SDS011;40965;52.368;9.712;2022-07-06T13:56:58;2.25;;;0.35;;
55067;SDS011;40965;52.368;9.712;2022-07-06T14:00:05;1.10;;;0.20;;
55067;SDS011;40965;52.368;9.712;2022-07-06T14:02:57;5.45;;;0.35;;
55067;SDS011;40965;52.368;9.712;2022-07-06T14:05:24;1.70;;;0.20;;
55067;SDS011;40965;52.368;9.712;2022-07-06T14:07:54;0.80;;;0.17;;
55067;SDS011;40965;52.368;9.712;2022-07-06T14:10:30;2.58;;;0.32;;
55067;SDS011;40965;52.368;9.712;2022-07-06T14:13:01;1.48;;;0.40;;
55067;SDS011;40965;52.368;9.712;2022-07-06T14:15:31;5.18;;;0.52;;
55067;SDS011;40965;52.368;9.712;2022-07-06T14:17:58;5.13;;;1.00;;
55067;SDS011;40965;52.368;9.712;2022-07-06T14:20:25;3.60;;;0.35;;
55067;SDS011;40965;52.368;9.712;2022-07-06T14:22:52;8.25;;;0.77;;
55067;SDS011;40965;52.368;9.712;2022-07-06T14:25:23;4.07;;;0.73;;
55067;SDS011;40965;52.368;9.712;2022-07-06T14:27:50;0.52;;;0.30;;
55067;SDS011;40965;52.368;9.712;2022-07-06T14:30:17;3.80;;;0.20;;
55067;SDS011;40965;52.368;9.712;2022-07-06T14:32:45;5.15;;;0.55;;
55067;SDS011;40965;52.368;9.712;2022-07-06T14:35:12;1.33;;;0.20;;
55067;SDS011;40965;52.368;9.712;2022-07-06T14:37:38;2.22;;;0.30;;
55067;SDS011;40965;52.368;9.712;2022-07-06T14:40:05;0.60;;;0.20;;
55067;SDS011;40965;52.368;9.712;2022-07-06T14:42:33;0.47;;;0.20;;
55067;SDS011;40965;52.368;9.712;2022-07-06T14:45:01;0.25;;;0.15;;
55067;SDS011;40965;52.368;9.712;2022-07-06T14:47:34;2.28;;;0.30;;
55067;SDS011;40965;52.368;9.712;2022-07-06T14:50:04;2.05;;;0.20;;
55067;SDS011;40965;52.368;9.712;2022-07-06T14:52:31;1.25;;;0.65;;
55067;SDS011;40965;52.368;9.712;2022-07-06T14:54:58;1.92;;;0.28;;
55067;SDS011;40965;52.368;9.712;2022-07-06T14:57:26;4.82;;;0.65;;
55067;SDS011;40965;52.368;9.712;2022-07-06T14:59:53;2.08;;;0.30;;
55067;SDS011;40965;52.368;9.712;2022-07-06T15:02:20;2.40;;;0.40;;
55067;SDS011;40965;52.368;9.712;2022-07-06T15:04:47;2.45;;;0.25;;
55067;SDS011;40965;52.368;9.712;2022-07-06T15:07:14;3.22;;;0.30;;
55067;SDS011;40965;52.368;9.712;2022-07-06T15:09:40;2.42;;;0.10;;
55067;SDS011;40965;52.368;9.712;2022-07-06T15:12:08;3.30;;;0.20;;
55067;SDS011;40965;52.368;9.712;2022-07-06T15:14:35;1.45;;;0.20;;
55067;SDS011;40965;52.368;9.712;2022-07-06T15:17:02;1.13;;;0.20;;
55067;SDS011;40965;52.368;9.712;2022-07-06T15:19:31;0.32;;;0.20;;
55067;SDS011;40965;52.368;9.712;2022-07-06T15:21:59;2.28;;;0.32;;
55067;SDS011;40965;52.368;9.712;2022-07-06T15:24:26;1.55;;;0.30;;
55067;SDS011;40965;52.368;9.712;2022-07-06T15:26:53;2.17;;;0.30;;
55067;SDS011;40965;52.368;9.712;2022-07-06T15:29:24;4.55;;;0.52;;
55067;SDS011;40965;52.368;9.712;2022-07-06T15:31:51;0.90;;;0.20;;
55067;SDS011;40965;52.368;9.712;2022-07-06T15:34:18;3.08;;;0.20;;